sensor_id;sensor_type;location;lat;lon;timestamp;temperature;humidity
29663;DHT22;16578;53.266;7.920;2023-03-04T00:00:22;9.70;70.30
29663;DHT22;16578;53.266;7.920;2023-03-04T00:02:48;9.70;70.30
29663;DHT22;16578;53.266;7.920;2023-03-04T00:05:13;9.70;70.30
29663;DHT22;16578;53.266;7.920;2023-03-04T00:07:39;9.70;70.30
29663;DHT22;16578;53.266;7.920;2023-03-04T00:10:05;9.70;70.30
29663;DHT22;16578;53.266;7.920;2023-03-04T00:12:30;9.70;70.30
29663;DHT22;16578;53.266;7.920;2023-03-04T00:14:56;9.70;70.40
29663;DHT22;16578;53.266;7.920;2023-03-04T00:17:21;9.70;70.40
29663;DHT22;16578;53.266;7.920;2023-03-04T00:19:48;9.70;70.40
29663;DHT22;16578;53.266;7.920;2023-03-04T00:22:14;9.70;70.50
29663;DHT22;16578;53.266;7.920;2023-03-04T00:24:39;9.70;70.40
29663;DHT22;16578;53.266;7.920;2023-03-04T00:27:05;9.70;70.40
29663;DHT22;16578;53.266;7.920;2023-03-04T00:29:30;9.70;70.50
29663;DHT22;16578;53.266;7.920;2023-03-04T00:31:56;9.70;70.40
29663;DHT22;16578;53.266;7.920;2023-03-04T00:34:22;9.70;70.40
29663;DHT22;16578;53.266;7.920;2023-03-04T00:36:47;9.70;70.50
29663;DHT22;16578;53.266;7.920;2023-03-04T00:39:13;9.70;70.40
29663;DHT22;16578;53.266;7.920;2023-03-04T00:41:39;9.70;70.40
29663;DHT22;16578;53.266;7.920;2023-03-04T00:44:05;9.70;70.30
29663;DHT22;16578;53.266;7.920;2023-03-04T00:46:31;9.70;70.30
29663;DHT22;16578;53.266;7.920;2023-03-04T00:48:56;9.70;70.30
29663;DHT22;16578;53.266;7.920;2023-03-04T00:51:22;9.70;70.20
29663;DHT22;16578;53.266;7.920;2023-03-04T00:53:47;9.70;70.10
29663;DHT22;16578;53.266;7.920;2023-03-04T00:56:13;9.70;70.10
29663;DHT22;16578;53.266;7.920;2023-03-04T00:58:38;9.70;70.10
29663;DHT22;16578;53.266;7.920;2023-03-04T01:01:05;9.70;70.10
29663;DHT22;16578;53.266;7.920;2023-03-04T01:03:31;9.70;70.00
29663;DHT22;16578;53.266;7.920;2023-03-04T01:05:57;9.70;69.90
29663;DHT22;16578;53.266;7.920;2023-03-04T01:08:23;9.70;69.90
29663;DHT22;16578;53.266;7.920;2023-03-04T01:10:49;9.70;69.90
29663;DHT22;16578;53.266;7.920;2023-03-04T01:13:15;9.70;69.70
29663;DHT22;16578;53.266;7.920;2023-03-04T01:15:40;9.70;69.60
29663;DHT22;16578;53.266;7.920;2023-03-04T01:18:06;9.70;69.50
29663;DHT22;16578;53.266;7.920;2023-03-04T01:20:31;9.70;69.50
29663;DHT22;16578;53.266;7.920;2023-03-04T01:22:57;9.70;69.30
29663;DHT22;16578;53.266;7.920;2023-03-04T01:25:22;9.70;69.30
29663;DHT22;16578;53.266;7.920;2023-03-04T01:27:48;9.70;69.20
29663;DHT22;16578;53.266;7.920;2023-03-04T01:30:13;9.70;69.30
29663;DHT22;16578;53.266;7.920;2023-03-04T01:32:39;9.80;69.30
29663;DHT22;16578;53.266;7.920;2023-03-04T01:35:05;9.80;69.30
29663;DHT22;16578;53.266;7.920;2023-03-04T01:37:30;9.80;69.20
29663;DHT22;16578;53.266;7.920;2023-03-04T01:39:56;9.80;69.20
29663;DHT22;16578;53.266;7.920;2023-03-04T01:42:23;9.70;69.10
29663;DHT22;16578;53.266;7.920;2023-03-04T01:44:50;9.80;69.10
29663;DHT22;16578;53.266;7.920;2023-03-04T01:47:17;9.60;69.20
29663;DHT22;16578;53.266;7.920;2023-03-04T01:49:43;9.70;69.20
29663;DHT22;16578;53.266;7.920;2023-03-04T01:52:12;9.70;69.10
29663;DHT22;16578;53.266;7.920;2023-03-04T01:54:39;9.70;69.00
29663;DHT22;16578;53.266;7.920;2023-03-04T01:57:20;9.70;69.10
29663;DHT22;16578;53.266;7.920;2023-03-04T01:59:46;9.70;68.90
29663;DHT22;16578;53.266;7.920;2023-03-04T02:02:31;9.70;69.10
29663;DHT22;16578;53.266;7.920;2023-03-04T02:04:57;9.70;69.30
29663;DHT22;16578;53.266;7.920;2023-03-04T02:07:22;9.70;69.20
29663;DHT22;16578;53.266;7.920;2023-03-04T02:09:48;9.70;69.30
29663;DHT22;16578;53.266;7.920;2023-03-04T02:12:14;9.70;69.30
29663;DHT22;16578;53.266;7.920;2023-03-04T02:14:39;9.70;69.30
29663;DHT22;16578;53.266;7.920;2023-03-04T02:17:10;9.70;69.30
29663;DHT22;16578;53.266;7.920;2023-03-04T02:19:52;9.70;69.30
29663;DHT22;16578;53.266;7.920;2023-03-04T02:22:20;9.70;69.40
29663;DHT22;16578;53.266;7.920;2023-03-04T02:24:53;9.70;69.50
29663;DHT22;16578;53.266;7.920;2023-03-04T02:27:19;9.70;69.50
29663;DHT22;16578;53.266;7.920;2023-03-04T02:29:44;9.70;70.40
29663;DHT22;16578;53.266;7.920;2023-03-04T02:32:12;9.70;69.50
29663;DHT22;16578;53.266;7.920;2023-03-04T02:34:44;9.70;69.60
29663;DHT22;16578;53.266;7.920;2023-03-04T02:37:10;9.70;69.70
29663;DHT22;16578;53.266;7.920;2023-03-04T02:39:41;9.70;69.70
29663;DHT22;16578;53.266;7.920;2023-03-04T02:42:08;9.70;69.60
29663;DHT22;16578;53.266;7.920;2023-03-04T02:44:36;9.70;69.70
29663;DHT22;16578;53.266;7.920;2023-03-04T02:47:04;9.70;69.70
29663;DHT22;16578;53.266;7.920;2023-03-04T02:49:30;9.70;69.70
29663;DHT22;16578;53.266;7.920;2023-03-04T02:52:06;9.60;69.90
29663;DHT22;16578;53.266;7.920;2023-03-04T02:54:32;9.70;69.90
29663;DHT22;16578;53.266;7.920;2023-03-04T02:57:00;9.70;69.70
29663;DHT22;16578;53.266;7.920;2023-03-04T02:59:26;9.70;69.80
29663;DHT22;16578;53.266;7.920;2023-03-04T03:01:52;9.70;69.80
29663;DHT22;16578;53.266;7.920;2023-03-04T03:04:19;9.70;69.70
29663;DHT22;16578;53.266;7.920;2023-03-04T03:06:46;9.70;69.70
29663;DHT22;16578;53.266;7.920;2023-03-04T03:09:11;9.70;69.70
29663;DHT22;16578;53.266;7.920;2023-03-04T03:11:37;9.70;69.70
29663;DHT22;16578;53.266;7.920;2023-03-04T03:14:03;9.80;69.80
29663;DHT22;16578;53.266;7.920;2023-03-04T03:16:29;9.70;69.80
29663;DHT22;16578;53.266;7.920;2023-03-04T03:18:55;9.70;69.80
29663;DHT22;16578;53.266;7.920;2023-03-04T03:21:21;9.70;69.80
29663;DHT22;16578;53.266;7.920;2023-03-04T03:23:46;9.70;69.90
29663;DHT22;16578;53.266;7.920;2023-03-04T03:26:12;9.70;69.90
29663;DHT22;16578;53.266;7.920;2023-03-04T03:28:37;9.70;70.00
29663;DHT22;16578;53.266;7.920;2023-03-04T03:31:03;9.70;70.00
29663;DHT22;16578;53.266;7.920;2023-03-04T03:33:29;9.80;70.10
29663;DHT22;16578;53.266;7.920;2023-03-04T03:35:55;9.80;70.00
29663;DHT22;16578;53.266;7.920;2023-03-04T03:38:20;9.80;70.10
29663;DHT22;16578;53.266;7.920;2023-03-04T03:40:46;9.80;70.20
29663;DHT22;16578;53.266;7.920;2023-03-04T03:43:11;9.80;70.20
29663;DHT22;16578;53.266;7.920;2023-03-04T03:45:37;9.80;70.20
29663;DHT22;16578;53.266;7.920;2023-03-04T03:48:03;9.80;70.20
29663;DHT22;16578;53.266;7.920;2023-03-04T03:50:28;9.80;70.20
29663;DHT22;16578;53.266;7.920;2023-03-04T03:52:54;9.80;70.20
29663;DHT22;16578;53.266;7.920;2023-03-04T03:55:20;9.80;70.20
29663;DHT22;16578;53.266;7.920;2023-03-04T03:57:46;9.80;70.20
29663;DHT22;16578;53.266;7.920;2023-03-04T04:00:12;9.80;70.30
29663;DHT22;16578;53.266;7.920;2023-03-04T04:02:38;9.80;70.30
29663;DHT22;16578;53.266;7.920;2023-03-04T04:05:04;9.80;70.30
29663;DHT22;16578;53.266;7.920;2023-03-04T04:07:30;9.80;70.40
29663;DHT22;16578;53.266;7.920;2023-03-04T04:09:55;9.80;70.50
29663;DHT22;16578;53.266;7.920;2023-03-04T04:12:22;9.80;70.60
29663;DHT22;16578;53.266;7.920;2023-03-04T04:14:47;9.80;70.70
29663;DHT22;16578;53.266;7.920;2023-03-04T04:17:13;9.80;70.70
29663;DHT22;16578;53.266;7.920;2023-03-04T04:19:39;9.80;70.80
29663;DHT22;16578;53.266;7.920;2023-03-04T04:22:07;9.70;70.80
29663;DHT22;16578;53.266;7.920;2023-03-04T04:24:34;9.80;71.00
29663;DHT22;16578;53.266;7.920;2023-03-04T04:27:00;9.80;71.10
29663;DHT22;16578;53.266;7.920;2023-03-04T04:29:26;9.80;71.20
29663;DHT22;16578;53.266;7.920;2023-03-04T04:31:51;9.70;71.30
29663;DHT22;16578;53.266;7.920;2023-03-04T04:34:17;9.70;71.40
29663;DHT22;16578;53.266;7.920;2023-03-04T04:36:42;9.70;72.30
29663;DHT22;16578;53.266;7.920;2023-03-04T04:39:08;9.70;71.50
29663;DHT22;16578;53.266;7.920;2023-03-04T04:41:37;9.70;71.70
29663;DHT22;16578;53.266;7.920;2023-03-04T04:44:03;9.70;71.90
29663;DHT22;16578;53.266;7.920;2023-03-04T04:46:29;9.70;72.00
29663;DHT22;16578;53.266;7.920;2023-03-04T04:48:54;9.70;72.20
29663;DHT22;16578;53.266;7.920;2023-03-04T04:51:20;9.60;72.30
29663;DHT22;16578;53.266;7.920;2023-03-04T04:53:46;9.60;72.40
29663;DHT22;16578;53.266;7.920;2023-03-04T04:56:15;9.60;72.60
29663;DHT22;16578;53.266;7.920;2023-03-04T04:58:41;9.60;72.70
29663;DHT22;16578;53.266;7.920;2023-03-04T05:01:07;9.60;72.80
29663;DHT22;16578;53.266;7.920;2023-03-04T05:03:35;9.60;72.90
29663;DHT22;16578;53.266;7.920;2023-03-04T05:06:01;9.60;73.00
29663;DHT22;16578;53.266;7.920;2023-03-04T05:08:27;9.60;73.10
29663;DHT22;16578;53.266;7.920;2023-03-04T05:10:52;9.60;73.30
29663;DHT22;16578;53.266;7.920;2023-03-04T05:13:18;9.60;73.40
29663;DHT22;16578;53.266;7.920;2023-03-04T05:15:45;9.60;73.70
29663;DHT22;16578;53.266;7.920;2023-03-04T05:18:10;9.50;73.60
29663;DHT22;16578;53.266;7.920;2023-03-04T05:20:36;9.50;73.70
29663;DHT22;16578;53.266;7.920;2023-03-04T05:23:02;9.50;73.90
29663;DHT22;16578;53.266;7.920;2023-03-04T05:25:27;9.50;74.10
29663;DHT22;16578;53.266;7.920;2023-03-04T05:27:53;9.50;74.20
29663;DHT22;16578;53.266;7.920;2023-03-04T05:30:18;9.50;74.30
29663;DHT22;16578;53.266;7.920;2023-03-04T05:32:44;9.60;74.50
29663;DHT22;16578;53.266;7.920;2023-03-04T05:35:09;9.60;74.60
29663;DHT22;16578;53.266;7.920;2023-03-04T05:37:35;9.50;74.50
29663;DHT22;16578;53.266;7.920;2023-03-04T05:40:00;9.60;74.70
29663;DHT22;16578;53.266;7.920;2023-03-04T05:42:26;9.60;74.80
29663;DHT22;16578;53.266;7.920;2023-03-04T05:44:52;9.50;74.90
29663;DHT22;16578;53.266;7.920;2023-03-04T05:47:17;9.50;74.90
29663;DHT22;16578;53.266;7.920;2023-03-04T05:49:43;9.50;75.00
29663;DHT22;16578;53.266;7.920;2023-03-04T05:52:09;9.50;75.20
29663;DHT22;16578;53.266;7.920;2023-03-04T05:54:34;9.50;75.30
29663;DHT22;16578;53.266;7.920;2023-03-04T05:57:00;9.50;75.40
29663;DHT22;16578;53.266;7.920;2023-03-04T05:59:26;9.50;75.50
29663;DHT22;16578;53.266;7.920;2023-03-04T06:01:52;9.50;75.60
29663;DHT22;16578;53.266;7.920;2023-03-04T06:04:18;9.40;76.00
29663;DHT22;16578;53.266;7.920;2023-03-04T06:06:43;9.40;76.80
29663;DHT22;16578;53.266;7.920;2023-03-04T06:09:11;9.40;76.00
29663;DHT22;16578;53.266;7.920;2023-03-04T06:11:36;9.40;76.00
29663;DHT22;16578;53.266;7.920;2023-03-04T06:14:02;9.40;76.30
29663;DHT22;16578;53.266;7.920;2023-03-04T06:16:27;9.30;76.40
29663;DHT22;16578;53.266;7.920;2023-03-04T06:18:53;9.30;76.40
29663;DHT22;16578;53.266;7.920;2023-03-04T06:21:18;9.30;76.70
29663;DHT22;16578;53.266;7.920;2023-03-04T06:23:44;9.30;76.60
29663;DHT22;16578;53.266;7.920;2023-03-04T06:26:11;9.30;76.50
29663;DHT22;16578;53.266;7.920;2023-03-04T06:28:40;9.30;76.70
29663;DHT22;16578;53.266;7.920;2023-03-04T06:31:06;9.30;76.80
29663;DHT22;16578;53.266;7.920;2023-03-04T06:33:32;9.30;76.90
29663;DHT22;16578;53.266;7.920;2023-03-04T06:35:58;9.30;76.90
29663;DHT22;16578;53.266;7.920;2023-03-04T06:38:24;9.30;76.90
29663;DHT22;16578;53.266;7.920;2023-03-04T06:40:50;9.30;76.90
29663;DHT22;16578;53.266;7.920;2023-03-04T06:43:16;9.30;77.00
29663;DHT22;16578;53.266;7.920;2023-03-04T06:45:42;9.30;76.90
29663;DHT22;16578;53.266;7.920;2023-03-04T06:48:08;9.30;76.90
29663;DHT22;16578;53.266;7.920;2023-03-04T06:50:33;9.30;76.90
29663;DHT22;16578;53.266;7.920;2023-03-04T06:52:59;9.30;76.90
29663;DHT22;16578;53.266;7.920;2023-03-04T06:55:24;9.40;77.00
29663;DHT22;16578;53.266;7.920;2023-03-04T06:57:50;9.40;77.00
29663;DHT22;16578;53.266;7.920;2023-03-04T07:00:16;9.40;76.90
29663;DHT22;16578;53.266;7.920;2023-03-04T07:02:42;9.40;76.80
29663;DHT22;16578;53.266;7.920;2023-03-04T07:05:09;9.40;76.80
29663;DHT22;16578;53.266;7.920;2023-03-04T07:07:34;9.40;76.80
29663;DHT22;16578;53.266;7.920;2023-03-04T07:10:00;9.40;76.70
29663;DHT22;16578;53.266;7.920;2023-03-04T07:12:25;9.40;76.60
29663;DHT22;16578;53.266;7.920;2023-03-04T07:14:51;9.40;76.60
29663;DHT22;16578;53.266;7.920;2023-03-04T07:17:17;9.40;76.40
29663;DHT22;16578;53.266;7.920;2023-03-04T07:19:42;9.40;76.30
29663;DHT22;16578;53.266;7.920;2023-03-04T07:22:09;9.50;76.20
29663;DHT22;16578;53.266;7.920;2023-03-04T07:24:34;9.50;76.20
29663;DHT22;16578;53.266;7.920;2023-03-04T07:27:00;9.50;76.20
29663;DHT22;16578;53.266;7.920;2023-03-04T07:29:25;9.50;76.20
29663;DHT22;16578;53.266;7.920;2023-03-04T07:31:51;9.50;76.30
29663;DHT22;16578;53.266;7.920;2023-03-04T07:34:16;9.50;76.30
29663;DHT22;16578;53.266;7.920;2023-03-04T07:36:43;9.50;76.30
29663;DHT22;16578;53.266;7.920;2023-03-04T07:39:10;9.50;76.20
29663;DHT22;16578;53.266;7.920;2023-03-04T07:41:37;9.50;76.30
29663;DHT22;16578;53.266;7.920;2023-03-04T07:44:04;9.40;76.80
29663;DHT22;16578;53.266;7.920;2023-03-04T07:46:30;9.50;76.40
29663;DHT22;16578;53.266;7.920;2023-03-04T07:48:55;9.50;76.20
29663;DHT22;16578;53.266;7.920;2023-03-04T07:51:23;9.50;76.20
29663;DHT22;16578;53.266;7.920;2023-03-04T07:53:52;9.50;76.20
29663;DHT22;16578;53.266;7.920;2023-03-04T07:56:24;9.50;76.30
29663;DHT22;16578;53.266;7.920;2023-03-04T07:58:50;9.50;76.10
29663;DHT22;16578;53.266;7.920;2023-03-04T08:01:27;9.50;76.00
29663;DHT22;16578;53.266;7.920;2023-03-04T08:03:53;9.50;75.80
29663;DHT22;16578;53.266;7.920;2023-03-04T08:06:20;9.50;75.80
29663;DHT22;16578;53.266;7.920;2023-03-04T08:08:46;9.50;75.30
29663;DHT22;16578;53.266;7.920;2023-03-04T08:11:18;9.50;74.90
29663;DHT22;16578;53.266;7.920;2023-03-04T08:13:44;9.60;74.70
29663;DHT22;16578;53.266;7.920;2023-03-04T08:16:12;9.60;74.60
29663;DHT22;16578;53.266;7.920;2023-03-04T08:18:43;9.60;74.20
29663;DHT22;16578;53.266;7.920;2023-03-04T08:21:11;9.60;73.80
29663;DHT22;16578;53.266;7.920;2023-03-04T08:23:37;9.60;73.80
29663;DHT22;16578;53.266;7.920;2023-03-04T08:26:28;9.60;73.70
29663;DHT22;16578;53.266;7.920;2023-03-04T08:28:54;9.60;73.30
29663;DHT22;16578;53.266;7.920;2023-03-04T08:31:21;9.60;73.60
29663;DHT22;16578;53.266;7.920;2023-03-04T08:33:47;9.60;73.40
29663;DHT22;16578;53.266;7.920;2023-03-04T08:36:13;9.70;73.30
29663;DHT22;16578;53.266;7.920;2023-03-04T08:38:40;9.70;73.30
29663;DHT22;16578;53.266;7.920;2023-03-04T08:41:05;9.70;73.10
29663;DHT22;16578;53.266;7.920;2023-03-04T08:43:32;9.70;73.00
29663;DHT22;16578;53.266;7.920;2023-03-04T08:45:57;9.80;72.80
29663;DHT22;16578;53.266;7.920;2023-03-04T08:48:23;9.80;72.70
29663;DHT22;16578;53.266;7.920;2023-03-04T08:50:49;9.70;72.60
29663;DHT22;16578;53.266;7.920;2023-03-04T08:53:16;9.70;72.60
29663;DHT22;16578;53.266;7.920;2023-03-04T08:55:42;9.70;72.70
29663;DHT22;16578;53.266;7.920;2023-03-04T08:58:08;9.70;72.60
29663;DHT22;16578;53.266;7.920;2023-03-04T09:00:36;9.80;72.70
29663;DHT22;16578;53.266;7.920;2023-03-04T09:03:03;9.80;72.70
29663;DHT22;16578;53.266;7.920;2023-03-04T09:05:29;9.80;72.60
29663;DHT22;16578;53.266;7.920;2023-03-04T09:07:54;9.80;72.50
29663;DHT22;16578;53.266;7.920;2023-03-04T09:10:20;9.80;72.60
29663;DHT22;16578;53.266;7.920;2023-03-04T09:12:46;9.80;72.60
29663;DHT22;16578;53.266;7.920;2023-03-04T09:15:11;9.70;72.50
29663;DHT22;16578;53.266;7.920;2023-03-04T09:17:38;9.70;72.80
29663;DHT22;16578;53.266;7.920;2023-03-04T09:20:05;9.70;72.90
29663;DHT22;16578;53.266;7.920;2023-03-04T09:22:32;9.70;73.20
29663;DHT22;16578;53.266;7.920;2023-03-04T09:24:58;9.60;73.40
29663;DHT22;16578;53.266;7.920;2023-03-04T09:27:23;9.70;73.30
29663;DHT22;16578;53.266;7.920;2023-03-04T09:29:49;9.70;73.10
29663;DHT22;16578;53.266;7.920;2023-03-04T09:32:14;9.70;72.90
29663;DHT22;16578;53.266;7.920;2023-03-04T09:34:40;9.70;72.60
29663;DHT22;16578;53.266;7.920;2023-03-04T09:37:06;9.70;72.70
29663;DHT22;16578;53.266;7.920;2023-03-04T09:39:31;9.70;72.30
29663;DHT22;16578;53.266;7.920;2023-03-04T09:41:57;9.70;72.10
29663;DHT22;16578;53.266;7.920;2023-03-04T09:44:31;9.70;71.90
29663;DHT22;16578;53.266;7.920;2023-03-04T09:47:01;9.70;71.90
29663;DHT22;16578;53.266;7.920;2023-03-04T09:49:27;9.70;71.50
29663;DHT22;16578;53.266;7.920;2023-03-04T09:54:35;9.70;70.50
29663;DHT22;16578;53.266;7.920;2023-03-04T10:00:22;9.80;70.00
29663;DHT22;16578;53.266;7.920;2023-03-04T10:05:23;9.80;70.10
29663;DHT22;16578;53.266;7.920;2023-03-04T10:08:19;9.80;70.40
29663;DHT22;16578;53.266;7.920;2023-03-04T10:10:50;9.80;70.10
29663;DHT22;16578;53.266;7.920;2023-03-04T10:13:25;9.80;70.50
29663;DHT22;16578;53.266;7.920;2023-03-04T10:15:58;9.80;70.60
29663;DHT22;16578;53.266;7.920;2023-03-04T10:18:43;9.80;70.80
29663;DHT22;16578;53.266;7.920;2023-03-04T10:21:25;9.80;70.90
29663;DHT22;16578;53.266;7.920;2023-03-04T10:23:54;9.80;71.00
29663;DHT22;16578;53.266;7.920;2023-03-04T10:26:20;9.80;71.00
29663;DHT22;16578;53.266;7.920;2023-03-04T10:28:47;9.80;70.60
29663;DHT22;16578;53.266;7.920;2023-03-04T10:31:37;9.80;70.20
29663;DHT22;16578;53.266;7.920;2023-03-04T10:34:08;9.90;70.00
29663;DHT22;16578;53.266;7.920;2023-03-04T10:37:01;9.90;70.30
29663;DHT22;16578;53.266;7.920;2023-03-04T10:39:39;9.90;70.40
29663;DHT22;16578;53.266;7.920;2023-03-04T10:44:51;10.00;69.80
29663;DHT22;16578;53.266;7.920;2023-03-04T10:47:17;10.10;69.60
29663;DHT22;16578;53.266;7.920;2023-03-04T10:49:57;10.10;69.70
29663;DHT22;16578;53.266;7.920;2023-03-04T10:55:05;10.20;69.20
29663;DHT22;16578;53.266;7.920;2023-03-04T10:57:40;10.30;69.10
29663;DHT22;16578;53.266;7.920;2023-03-04T11:00:33;10.20;69.10
29663;DHT22;16578;53.266;7.920;2023-03-04T11:03:35;10.30;68.70
29663;DHT22;16578;53.266;7.920;2023-03-04T11:06:19;10.30;68.50
29663;DHT22;16578;53.266;7.920;2023-03-04T11:08:54;10.40;68.60
29663;DHT22;16578;53.266;7.920;2023-03-04T11:11:36;10.40;68.70
29663;DHT22;16578;53.266;7.920;2023-03-04T11:14:18;10.40;68.60
29663;DHT22;16578;53.266;7.920;2023-03-04T11:16:57;10.40;68.60
29663;DHT22;16578;53.266;7.920;2023-03-04T11:19:38;10.30;68.70
29663;DHT22;16578;53.266;7.920;2023-03-04T11:22:04;10.20;69.00
29663;DHT22;16578;53.266;7.920;2023-03-04T11:24:33;10.20;69.40
29663;DHT22;16578;53.266;7.920;2023-03-04T11:27:05;10.20;69.40
29663;DHT22;16578;53.266;7.920;2023-03-04T11:29:51;10.20;69.40
29663;DHT22;16578;53.266;7.920;2023-03-04T11:32:20;10.20;69.00
29663;DHT22;16578;53.266;7.920;2023-03-04T11:35:04;10.10;69.10
29663;DHT22;16578;53.266;7.920;2023-03-04T11:40:10;10.20;69.50
29663;DHT22;16578;53.266;7.920;2023-03-04T11:45:15;10.20;69.20
29663;DHT22;16578;53.266;7.920;2023-03-04T11:47:54;10.30;69.10
29663;DHT22;16578;53.266;7.920;2023-03-04T11:50:34;10.30;68.20
29663;DHT22;16578;53.266;7.920;2023-03-04T11:53:16;10.30;67.70
29663;DHT22;16578;53.266;7.920;2023-03-04T12:02:07;10.30;67.10
29663;DHT22;16578;53.266;7.920;2023-03-04T12:13:27;10.20;68.10
29663;DHT22;16578;53.266;7.920;2023-03-04T12:16:28;10.20;67.90
29663;DHT22;16578;53.266;7.920;2023-03-04T12:24:40;10.20;66.60
29663;DHT22;16578;53.266;7.920;2023-03-04T12:27:39;10.10;66.70
29663;DHT22;16578;53.266;7.920;2023-03-04T12:30:42;10.20;66.50
29663;DHT22;16578;53.266;7.920;2023-03-04T12:36:11;10.20;66.50
29663;DHT22;16578;53.266;7.920;2023-03-04T12:38:59;10.20;66.80
29663;DHT22;16578;53.266;7.920;2023-03-04T12:44:16;10.30;66.40
29663;DHT22;16578;53.266;7.920;2023-03-04T12:47:12;10.30;66.30
29663;DHT22;16578;53.266;7.920;2023-03-04T12:49:59;10.30;65.50
29663;DHT22;16578;53.266;7.920;2023-03-04T12:55:41;10.30;65.50
29663;DHT22;16578;53.266;7.920;2023-03-04T12:58:15;10.20;65.40
29663;DHT22;16578;53.266;7.920;2023-03-04T13:01:06;10.20;65.70
29663;DHT22;16578;53.266;7.920;2023-03-04T13:09:15;10.20;64.70
29663;DHT22;16578;53.266;7.920;2023-03-04T13:11:52;10.20;64.90
29663;DHT22;16578;53.266;7.920;2023-03-04T13:14:24;10.20;64.70
29663;DHT22;16578;53.266;7.920;2023-03-04T13:16:55;10.20;64.50
29663;DHT22;16578;53.266;7.920;2023-03-04T13:19:50;10.20;63.70
29663;DHT22;16578;53.266;7.920;2023-03-04T13:22:33;10.20;64.10
29663;DHT22;16578;53.266;7.920;2023-03-04T13:28:17;10.20;64.00
29663;DHT22;16578;53.266;7.920;2023-03-04T13:41:28;10.20;63.70
29663;DHT22;16578;53.266;7.920;2023-03-04T13:44:00;10.20;63.10
29663;DHT22;16578;53.266;7.920;2023-03-04T13:56:35;10.20;63.20
29663;DHT22;16578;53.266;7.920;2023-03-04T14:01:47;10.20;63.50
29663;DHT22;16578;53.266;7.920;2023-03-04T14:04:19;10.20;62.70
29663;DHT22;16578;53.266;7.920;2023-03-04T14:06:47;10.20;62.30
29663;DHT22;16578;53.266;7.920;2023-03-04T14:11:49;10.20;62.40
29663;DHT22;16578;53.266;7.920;2023-03-04T14:14:21;10.10;62.70
29663;DHT22;16578;53.266;7.920;2023-03-04T14:19:42;10.10;62.90
29663;DHT22;16578;53.266;7.920;2023-03-04T14:22:38;10.10;62.70
29663;DHT22;16578;53.266;7.920;2023-03-04T14:27:39;10.10;63.20
29663;DHT22;16578;53.266;7.920;2023-03-04T14:30:17;10.10;63.10
29663;DHT22;16578;53.266;7.920;2023-03-04T14:32:43;10.10;62.70
29663;DHT22;16578;53.266;7.920;2023-03-04T14:35:24;10.00;62.20
29663;DHT22;16578;53.266;7.920;2023-03-04T14:38:02;10.00;62.10
29663;DHT22;16578;53.266;7.920;2023-03-04T14:45:57;10.00;62.50
29663;DHT22;16578;53.266;7.920;2023-03-04T14:48:27;9.90;62.10
29663;DHT22;16578;53.266;7.920;2023-03-04T14:50:55;9.90;61.80
29663;DHT22;16578;53.266;7.920;2023-03-04T14:53:24;9.90;61.80
29663;DHT22;16578;53.266;7.920;2023-03-04T14:55:58;9.90;61.70
29663;DHT22;16578;53.266;7.920;2023-03-04T14:58:35;9.80;61.80
29663;DHT22;16578;53.266;7.920;2023-03-04T15:01:16;9.80;61.90
29663;DHT22;16578;53.266;7.920;2023-03-04T15:06:34;9.70;63.30
29663;DHT22;16578;53.266;7.920;2023-03-04T15:09:04;9.60;63.60
29663;DHT22;16578;53.266;7.920;2023-03-04T15:11:51;9.60;63.90
29663;DHT22;16578;53.266;7.920;2023-03-04T15:14:45;9.60;64.00
29663;DHT22;16578;53.266;7.920;2023-03-04T15:17:24;9.50;64.20
29663;DHT22;16578;53.266;7.920;2023-03-04T15:25:17;9.40;64.60
29663;DHT22;16578;53.266;7.920;2023-03-04T15:27:44;9.40;64.90
29663;DHT22;16578;53.266;7.920;2023-03-04T15:32:49;9.20;65.20
29663;DHT22;16578;53.266;7.920;2023-03-04T15:35:17;9.20;65.50
29663;DHT22;16578;53.266;7.920;2023-03-04T15:37:43;9.20;65.70
29663;DHT22;16578;53.266;7.920;2023-03-04T15:42:57;9.10;65.70
29663;DHT22;16578;53.266;7.920;2023-03-04T15:45:27;9.10;65.90
29663;DHT22;16578;53.266;7.920;2023-03-04T15:47:52;9.00;66.00
29663;DHT22;16578;53.266;7.920;2023-03-04T15:50:19;9.00;66.10
29663;DHT22;16578;53.266;7.920;2023-03-04T15:52:45;8.90;66.20
29663;DHT22;16578;53.266;7.920;2023-03-04T15:55:16;9.00;66.40
29663;DHT22;16578;53.266;7.920;2023-03-04T15:57:45;8.90;66.60
29663;DHT22;16578;53.266;7.920;2023-03-04T16:00:12;8.90;66.80
29663;DHT22;16578;53.266;7.920;2023-03-04T16:02:38;8.90;66.90
29663;DHT22;16578;53.266;7.920;2023-03-04T16:05:05;9.00;67.00
29663;DHT22;16578;53.266;7.920;2023-03-04T16:07:30;9.00;67.10
29663;DHT22;16578;53.266;7.920;2023-03-04T16:09:59;9.00;67.30
29663;DHT22;16578;53.266;7.920;2023-03-04T16:12:27;9.00;67.50
29663;DHT22;16578;53.266;7.920;2023-03-04T16:14:52;9.10;67.50
29663;DHT22;16578;53.266;7.920;2023-03-04T16:17:18;9.00;67.30
29663;DHT22;16578;53.266;7.920;2023-03-04T16:19:44;9.00;67.20
29663;DHT22;16578;53.266;7.920;2023-03-04T16:22:14;9.00;67.40
29663;DHT22;16578;53.266;7.920;2023-03-04T16:24:42;9.00;67.60
29663;DHT22;16578;53.266;7.920;2023-03-04T16:27:10;8.90;67.60
29663;DHT22;16578;53.266;7.920;2023-03-04T16:29:37;8.90;67.80
29663;DHT22;16578;53.266;7.920;2023-03-04T16:32:02;8.90;67.90
29663;DHT22;16578;53.266;7.920;2023-03-04T16:34:28;8.90;67.80
29663;DHT22;16578;53.266;7.920;2023-03-04T16:36:53;8.90;67.80
29663;DHT22;16578;53.266;7.920;2023-03-04T16:39:21;8.90;68.00
29663;DHT22;16578;53.266;7.920;2023-03-04T16:41:48;8.90;68.10
29663;DHT22;16578;53.266;7.920;2023-03-04T16:44:14;8.80;68.30
29663;DHT22;16578;53.266;7.920;2023-03-04T16:46:40;8.80;68.40
29663;DHT22;16578;53.266;7.920;2023-03-04T16:49:06;8.90;68.60
29663;DHT22;16578;53.266;7.920;2023-03-04T16:51:35;8.80;68.70
29663;DHT22;16578;53.266;7.920;2023-03-04T16:54:03;8.90;68.90
29663;DHT22;16578;53.266;7.920;2023-03-04T16:56:29;8.80;68.90
29663;DHT22;16578;53.266;7.920;2023-03-04T16:58:54;8.80;68.80
29663;DHT22;16578;53.266;7.920;2023-03-04T17:01:26;8.70;68.90
29663;DHT22;16578;53.266;7.920;2023-03-04T17:03:52;8.70;69.00
29663;DHT22;16578;53.266;7.920;2023-03-04T17:06:18;8.60;68.90
29663;DHT22;16578;53.266;7.920;2023-03-04T17:08:43;8.60;69.00
29663;DHT22;16578;53.266;7.920;2023-03-04T17:11:15;8.50;69.10
29663;DHT22;16578;53.266;7.920;2023-03-04T17:13:41;8.50;69.20
29663;DHT22;16578;53.266;7.920;2023-03-04T17:16:07;8.40;69.20
29663;DHT22;16578;53.266;7.920;2023-03-04T17:18:32;8.40;69.50
29663;DHT22;16578;53.266;7.920;2023-03-04T17:21:07;8.30;69.60
29663;DHT22;16578;53.266;7.920;2023-03-04T17:23:33;8.30;69.40
29663;DHT22;16578;53.266;7.920;2023-03-04T17:26:00;8.20;69.50
29663;DHT22;16578;53.266;7.920;2023-03-04T17:28:26;8.30;69.50
29663;DHT22;16578;53.266;7.920;2023-03-04T17:30:52;8.20;69.50
29663;DHT22;16578;53.266;7.920;2023-03-04T17:33:17;8.20;69.50
29663;DHT22;16578;53.266;7.920;2023-03-04T17:35:44;8.10;69.60
29663;DHT22;16578;53.266;7.920;2023-03-04T17:38:11;8.20;69.80
29663;DHT22;16578;53.266;7.920;2023-03-04T17:40:37;8.10;69.90